Time;durP1;ratioP1;P1;durP2;ratioP2;P2;SDS_P1;SDS_P2;PMS_P1;PMS_P2;Temp;Humidity;BMP_temperature;BMP_pressure;BME280_temperature;BME280_humidity;BME280_pressure;Samples;Min_cycle;Max_cycle;Signal;HPM_P1;HPM_P2
2021/10/04 00:00:38;;;;;;;0.20;0.20;;;;;;;15.32;52.02;98652.63;114047;1217;137327;-86
2021/10/04 00:03:03;;;;;;;0.30;0.30;;;;;;;15.28;52.06;98653.45;114083;1217;137864;-86
2021/10/04 00:05:49;;;;;;;0.20;0.20;;;;;;;15.24;51.88;98660.79;114244;1212;22432;-86
2021/10/04 00:08:55;;;;;;;0.10;0.10;;;;;;;15.20;51.57;98656.45;114205;1216;137142;-87
2021/10/04 00:12:02;;;;;;;0.20;0.20;;;;;;;15.17;51.78;98652.31;114317;1217;22450;-87
2021/10/04 00:15:30;;;;;;;0.20;0.20;;;;;;;15.14;51.96;98649.48;114185;1216;137060;-87
2021/10/04 00:18:30;;;;;;;0.10;0.10;;;;;;;15.09;52.00;98652.31;114280;1216;137633;-86
2021/10/04 00:21:17;;;;;;;0.20;0.20;;;;;;;15.05;52.11;98649.80;114191;1217;137578;-87
2021/10/04 00:24:05;;;;;;;0.10;0.10;;;;;;;15.00;52.27;98646.90;114193;1217;137781;-87
2021/10/04 00:27:11;;;;;;;0.10;0.10;;;;;;;14.96;52.18;98644.05;114199;1217;137531;-87
2021/10/04 00:29:42;;;;;;;0.10;0.10;;;;;;;14.94;52.21;98638.55;114150;1217;137913;-87
2021/10/04 00:32:17;;;;;;;0.10;0.10;;;;;;;14.93;52.17;98636.59;114237;1217;25609;-86
2021/10/04 00:35:11;;;;;;;0.20;0.20;;;;;;;14.89;52.37;98629.14;114100;1213;137684;-85
2021/10/04 00:37:40;;;;;;;0.10;0.10;;;;;;;14.85;52.48;98630.08;114166;1217;137609;-85
2021/10/04 00:40:11;;;;;;;0.20;0.20;;;;;;;14.82;52.32;98630.90;114180;1209;137482;-85
2021/10/04 00:42:39;;;;;;;0.10;0.10;;;;;;;14.81;52.18;98629.13;114148;1217;137490;-85
2021/10/04 00:45:06;;;;;;;0.10;0.10;;;;;;;14.78;52.16;98628.80;114289;1213;137562;-83
2021/10/04 00:47:32;;;;;;;0.20;0.20;;;;;;;14.75;52.32;98628.30;114134;1203;137862;-83
2021/10/04 00:49:58;;;;;;;0.10;0.10;;;;;;;14.72;52.24;98622.84;114240;1216;22461;-83
2021/10/04 00:52:23;;;;;;;0.20;0.20;;;;;;;14.70;52.20;98617.44;114137;1217;137320;-84
2021/10/04 00:54:54;;;;;;;0.20;0.20;;;;;;;14.70;51.98;98615.27;114133;1212;137384;-85
2021/10/04 00:57:20;;;;;;;0.10;0.10;;;;;;;14.68;52.10;98611.48;114160;1217;137348;-85
2021/10/04 00:59:47;;;;;;;0.10;0.10;;;;;;;14.67;52.24;98609.73;114156;1217;137533;-84
2021/10/04 01:02:13;;;;;;;0.20;0.20;;;;;;;14.64;52.24;98614.35;114294;1217;24095;-85
2021/10/04 01:04:41;;;;;;;0.10;0.10;;;;;;;14.62;52.29;98612.77;114301;1209;137247;-84
2021/10/04 01:07:08;;;;;;;0.10;0.10;;;;;;;14.59;52.12;98612.07;114115;1217;137405;-84
2021/10/04 01:09:34;;;;;;;0.20;0.20;;;;;;;14.58;52.24;98609.94;114125;1217;137567;-85
2021/10/04 01:12:00;;;;;;;0.20;0.20;;;;;;;14.57;52.51;98616.38;114078;1217;137565;-84
2021/10/04 01:14:27;;;;;;;0.10;0.10;;;;;;;14.56;52.57;98614.64;114260;1212;23298;-84
2021/10/04 01:16:53;;;;;;;0.10;0.10;;;;;;;14.53;52.83;98614.55;114097;1217;136955;-83
2021/10/04 01:19:19;;;;;;;0.10;0.10;;;;;;;14.51;53.08;98611.14;114025;1216;137542;-84
2021/10/04 01:21:45;;;;;;;0.10;0.10;;;;;;;14.49;52.92;98609.05;114081;1217;139640;-84
2021/10/04 01:24:14;;;;;;;0.20;0.20;;;;;;;14.48;52.91;98609.95;114136;1217;137688;-85
2021/10/04 01:26:41;;;;;;;0.10;0.10;;;;;;;14.47;52.96;98607.49;114111;1217;138103;-84
2021/10/04 01:29:07;;;;;;;0.20;0.20;;;;;;;14.47;53.00;98610.58;114178;1217;22460;-85
2021/10/04 01:31:34;;;;;;;0.20;0.20;;;;;;;14.46;52.85;98607.94;114157;1217;137306;-85
2021/10/04 01:34:04;;;;;;;0.10;0.10;;;;;;;14.46;53.28;98603.80;114218;1217;137405;-84
2021/10/04 01:36:30;;;;;;;0.10;0.10;;;;;;;14.43;53.15;98604.02;114157;1217;137455;-84
2021/10/04 01:38:57;;;;;;;0.10;0.10;;;;;;;14.42;53.15;98595.77;114151;1216;137475;-84
2021/10/04 01:41:24;;;;;;;0.20;0.20;;;;;;;14.41;53.25;98594.86;114291;1209;25086;-84
2021/10/04 01:43:52;;;;;;;0.20;0.20;;;;;;;14.41;53.39;98594.39;114197;1216;138425;-84
2021/10/04 01:46:19;;;;;;;0.10;0.10;;;;;;;14.40;53.26;98592.90;114118;1217;137485;-85
2021/10/04 01:48:46;;;;;;;0.10;0.10;;;;;;;14.38;53.63;98592.83;114214;1217;137426;-84
2021/10/04 01:51:13;;;;;;;0.20;0.20;;;;;;;14.36;53.70;98591.66;114182;1213;137542;-86
2021/10/04 01:53:39;;;;;;;0.10;0.10;;;;;;;14.33;53.75;98593.08;114171;1209;137547;-86
2021/10/04 01:56:05;;;;;;;0.10;0.10;;;;;;;14.29;54.17;98593.23;114258;1216;22452;-87
2021/10/04 01:58:31;;;;;;;0.10;0.10;;;;;;;14.24;54.20;98597.08;114152;1216;137332;-86
2021/10/04 02:00:59;;;;;;;0.20;0.20;;;;;;;14.19;54.27;98594.65;114206;1216;137568;-86
2021/10/04 02:03:26;;;;;;;0.10;0.10;;;;;;;14.13;54.96;98596.73;114184;1209;137416;-86
2021/10/04 02:05:56;;;;;;;0.10;0.10;;;;;;;14.09;55.13;98592.29;114155;1217;137601;-86
2021/10/04 02:08:24;;;;;;;0.10;0.10;;;;;;;14.04;55.19;98599.83;114238;1217;22467;-86
2021/10/04 02:10:50;;;;;;;0.10;0.10;;;;;;;13.99;55.37;98597.66;114211;1217;137177;-86
2021/10/04 02:13:17;;;;;;;0.10;0.10;;;;;;;13.96;55.69;98598.82;114156;1217;137439;-86
2021/10/04 02:15:44;;;;;;;0.10;0.10;;;;;;;13.91;56.05;98594.70;114257;1217;137738;-86
2021/10/04 02:18:32;;;;;;;0.10;0.10;;;;;;;13.87;56.26;98590.11;114272;1217;137587;-86
2021/10/04 02:21:18;;;;;;;0.10;0.10;;;;;;;13.80;56.32;98588.98;114171;1217;137992;-87
2021/10/04 02:23:48;;;;;;;0.10;0.10;;;;;;;13.74;56.44;98592.99;114204;1217;137528;-87
2021/10/04 02:26:19;;;;;;;0.10;0.10;;;;;;;13.69;56.59;98591.92;114312;1213;22436;-87
2021/10/04 02:28:45;;;;;;;0.20;0.20;;;;;;;13.63;56.81;98590.01;114277;1216;137244;-87
2021/10/04 02:31:27;;;;;;;0.10;0.10;;;;;;;13.58;56.78;98592.20;114148;1217;137388;-87
2021/10/04 02:34:09;;;;;;;0.10;0.10;;;;;;;13.54;56.89;98592.77;114081;1217;137513;-87
2021/10/04 02:36:37;;;;;;;0.10;0.10;;;;;;;13.49;56.93;98587.48;114183;1217;137446;-85
2021/10/04 02:39:04;;;;;;;0.10;0.10;;;;;;;13.45;56.96;98589.80;114190;1217;137573;-86
2021/10/04 02:41:31;;;;;;;0.10;0.10;;;;;;;13.42;57.07;98594.46;114304;1213;25101;-87
2021/10/04 02:43:57;;;;;;;0.10;0.10;;;;;;;13.38;57.36;98594.69;114170;1217;137196;-85
2021/10/04 02:46:23;;;;;;;0.10;0.10;;;;;;;13.35;57.33;98591.90;114170;1216;137577;-86
2021/10/04 02:48:48;;;;;;;0.10;0.10;;;;;;;13.31;57.53;98598.39;114166;1216;137716;-85
2021/10/04 02:51:34;;;;;;;0.10;0.10;;;;;;;13.28;57.78;98598.41;114169;1217;137802;-86
2021/10/04 02:54:42;;;;;;;0.10;0.10;;;;;;;13.21;58.25;98593.72;114179;1217;137528;-87
2021/10/04 02:57:11;;;;;;;0.10;0.10;;;;;;;13.17;58.18;98595.98;114280;1217;137728;-87
2021/10/04 03:00:16;;;;;;;0.20;0.20;;;;;;;13.15;58.44;98594.96;114117;1217;138267;-87
2021/10/04 03:03:11;;;;;;;0.20;0.20;;;;;;;13.16;58.83;98591.23;114178;1217;138283;-87
2021/10/04 03:05:37;;;;;;;0.20;0.20;;;;;;;13.18;59.30;98598.84;114198;1217;137988;-86
2021/10/04 03:08:06;;;;;;;0.10;0.10;;;;;;;13.19;59.39;98599.85;114283;1217;22442;-87
2021/10/04 03:10:37;;;;;;;0.10;0.10;;;;;;;13.19;59.32;98603.29;114197;1217;137774;-87
2021/10/04 03:13:13;;;;;;;0.10;0.10;;;;;;;13.21;59.28;98604.60;114185;1216;137380;-87
2021/10/04 03:15:39;;;;;;;0.10;0.10;;;;;;;13.22;59.31;98600.17;114187;1217;137545;-87
2021/10/04 03:18:13;;;;;;;0.10;0.10;;;;;;;13.22;59.33;98603.64;114188;1217;137746;-87
2021/10/04 03:21:03;;;;;;;0.10;0.10;;;;;;;13.19;59.49;98604.50;114241;1213;137564;-86
2021/10/04 03:24:13;;;;;;;0.00;0.00;;;;;;;13.15;59.52;98605.66;114269;1217;24029;-88
2021/10/04 03:27:20;;;;;;;0.10;0.10;;;;;;;13.09;59.56;98605.85;114230;1217;137065;-88
2021/10/04 03:30:20;;;;;;;0.10;0.10;;;;;;;13.01;60.24;98600.10;114179;1217;137918;-87
2021/10/04 03:33:26;;;;;;;0.10;0.10;;;;;;;12.95;59.78;98598.66;114169;1217;137533;-87
2021/10/04 03:35:53;;;;;;;0.10;0.10;;;;;;;12.90;59.99;98593.60;114170;1217;137931;-86
2021/10/04 03:38:18;;;;;;;0.10;0.10;;;;;;;12.86;59.88;98596.89;114298;1216;22476;-85
2021/10/04 03:40:44;;;;;;;0.10;0.10;;;;;;;12.83;59.81;98590.89;114116;1213;137306;-85
2021/10/04 03:43:11;;;;;;;0.10;0.10;;;;;;;12.79;59.75;98591.55;114121;1217;137408;-85
2021/10/04 03:45:56;;;;;;;0.10;0.10;;;;;;;12.76;60.05;98590.83;114162;1217;137375;-88
2021/10/04 03:49:12;;;;;;;0.20;0.10;;;;;;;12.72;60.53;98588.46;114225;1216;137347;-87
2021/10/04 03:51:47;;;;;;;0.10;0.10;;;;;;;12.68;60.64;98589.84;114218;1216;137414;-88
2021/10/04 03:54:48;;;;;;;0.20;0.20;;;;;;;12.66;60.52;98595.81;114208;1212;137685;-86
2021/10/04 03:57:15;;;;;;;;;;;;;;;12.62;61.00;98593.58;114229;1217;137625;-86
2021/10/04 03:59:45;;;;;;;0.10;0.10;;;;;;;12.59;61.35;98596.35;114204;1217;124135;-86
2021/10/04 04:02:39;;;;;;;0.10;0.10;;;;;;;12.56;61.15;98598.06;114390;1212;22451;-86
2021/10/04 04:05:45;;;;;;;0.10;0.10;;;;;;;12.55;61.29;98596.19;114158;1213;137872;-86
2021/10/04 04:08:20;;;;;;;0.10;0.10;;;;;;;12.58;61.42;98594.64;114283;1213;22452;-86
2021/10/04 04:11:11;;;;;;;0.10;0.10;;;;;;;12.61;61.84;98591.61;114258;1217;136562;-86
2021/10/04 04:13:40;;;;;;;0.20;0.20;;;;;;;12.64;61.92;98594.27;114212;1217;137552;-86
2021/10/04 04:16:49;;;;;;;0.20;0.20;;;;;;;12.67;62.02;98604.80;114209;1217;136535;-86
2021/10/04 04:19:17;;;;;;;0.10;0.10;;;;;;;12.66;61.88;98608.55;114161;1207;137343;-87
2021/10/04 04:21:43;;;;;;;0.10;0.10;;;;;;;12.67;61.47;98604.83;114200;1216;137333;-86
2021/10/04 04:24:31;;;;;;;0.10;0.10;;;;;;;12.69;61.39;98606.99;114160;1212;137812;-87
2021/10/04 04:27:17;;;;;;;0.10;0.10;;;;;;;12.73;61.56;98615.95;114161;1217;137552;-87
2021/10/04 04:30:06;;;;;;;0.10;0.10;;;;;;;12.73;61.77;98613.47;114181;1217;137508;-86
2021/10/04 04:32:32;;;;;;;0.10;0.10;;;;;;;12.72;61.72;98617.59;114133;1216;137540;-86
2021/10/04 04:35:18;;;;;;;0.20;0.20;;;;;;;12.71;61.70;98616.88;114283;1217;22462;-87
2021/10/04 04:38:04;;;;;;;0.10;0.10;;;;;;;12.67;61.89;98617.10;114229;1217;137183;-86
2021/10/04 04:40:54;;;;;;;0.10;0.10;;;;;;;12.64;61.81;98614.05;114292;1209;22450;-87
2021/10/04 04:43:25;;;;;;;0.10;0.10;;;;;;;12.61;61.86;98621.90;114206;1217;137370;-87
2021/10/04 04:45:58;;;;;;;0.10;0.10;;;;;;;12.56;61.89;98626.02;114160;1213;137359;-86
2021/10/04 04:48:25;;;;;;;0.10;0.10;;;;;;;12.52;62.00;98627.31;114185;1216;137462;-86
2021/10/04 04:51:31;;;;;;;0.10;0.10;;;;;;;12.48;61.60;98627.77;114189;1217;137475;-87
2021/10/04 04:54:58;;;;;;;0.10;0.10;;;;;;;12.46;60.94;98641.13;114203;1217;137409;-88
2021/10/04 04:58:25;;;;;;;0.10;0.10;;;;;;;12.45;60.50;98642.77;114191;1217;137359;-88
2021/10/04 05:01:51;;;;;;;0.10;0.10;;;;;;;12.47;60.79;98656.61;114232;1217;137517;-88
2021/10/04 05:05:17;;;;;;;0.20;0.20;;;;;;;12.46;60.89;98656.42;114197;1217;137425;-88
2021/10/04 05:08:23;;;;;;;0.30;0.30;;;;;;;12.45;61.13;98669.60;114167;1217;137262;-88
2021/10/04 05:11:32;;;;;;;0.10;0.10;;;;;;;12.44;61.35;98665.05;114185;1217;137237;-87
2021/10/04 05:14:05;;;;;;;0.10;0.10;;;;;;;12.43;61.31;98660.52;114297;1217;22458;-86
2021/10/04 05:16:31;;;;;;;0.10;0.10;;;;;;;12.41;62.03;98666.16;114154;1215;136976;-86
2021/10/04 05:18:56;;;;;;;0.10;0.10;;;;;;;12.43;61.86;98663.30;114096;1217;138173;-86
2021/10/04 05:21:45;;;;;;;0.10;0.10;;;;;;;12.48;62.04;98663.98;114156;1216;137632;-88
2021/10/04 05:24:14;;;;;;;0.10;0.10;;;;;;;12.52;62.10;98671.59;114130;1213;137500;-86
2021/10/04 05:26:41;;;;;;;0.10;0.10;;;;;;;12.55;61.96;98676.36;114217;1217;138189;-86
2021/10/04 05:29:08;;;;;;;0.10;0.10;;;;;;;12.58;61.46;98674.55;114243;1211;22520;-83
2021/10/04 05:31:53;;;;;;;0.20;0.20;;;;;;;12.60;60.56;98671.63;114102;1213;137218;-87
2021/10/04 05:34:43;;;;;;;0.20;0.20;;;;;;;12.64;60.18;98670.05;114164;1213;137438;-87
2021/10/04 05:37:13;;;;;;;0.10;0.10;;;;;;;12.67;60.68;98674.48;114202;1217;137478;-87
2021/10/04 05:39:44;;;;;;;0.10;0.10;;;;;;;12.70;61.19;98672.92;114183;1212;137414;-87
2021/10/04 05:42:16;;;;;;;0.20;0.20;;;;;;;12.72;61.42;98672.92;114189;1211;137543;-87
2021/10/04 05:45:21;;;;;;;0.10;0.10;;;;;;;12.73;61.72;98673.98;114135;1213;137741;-89
2021/10/04 05:48:11;;;;;;;0.20;0.20;;;;;;;12.74;62.22;98679.65;114181;1209;137670;-88
2021/10/04 05:50:46;;;;;;;0.10;0.10;;;;;;;12.75;61.99;98688.27;114097;1217;137527;-88
2021/10/04 05:53:37;;;;;;;0.10;0.10;;;;;;;12.77;62.23;98684.98;114193;1216;22460;-88
2021/10/04 05:57:02;;;;;;;0.20;0.20;;;;;;;12.80;62.36;98686.61;114143;1216;137121;-89
2021/10/04 06:00:10;;;;;;;0.10;0.10;;;;;;;12.81;62.47;98683.42;114099;1217;137562;-88
2021/10/04 06:02:37;;;;;;;0.10;0.10;;;;;;;12.83;62.29;98684.20;114118;1211;136597;-88
2021/10/04 06:05:43;;;;;;;0.10;0.10;;;;;;;12.84;62.36;98682.50;114182;1213;22450;-88
2021/10/04 06:08:56;;;;;;;0.20;0.20;;;;;;;12.89;62.67;98683.63;114258;1212;22458;-88
2021/10/04 06:11:52;;;;;;;0.10;0.10;;;;;;;12.99;62.48;98678.39;114237;1216;137737;-88
2021/10/04 06:14:58;;;;;;;0.10;0.10;;;;;;;13.13;62.89;98687.10;114220;1217;138258;-90
2021/10/04 06:18:23;;;;;;;0.20;0.20;;;;;;;13.29;62.97;98683.38;114242;1216;138456;-87
2021/10/04 06:21:30;;;;;;;0.20;0.20;;;;;;;13.45;62.64;98682.48;114235;1217;137528;-86
2021/10/04 06:24:55;;;;;;;0.10;0.10;;;;;;;13.63;62.33;98686.33;114327;1216;137601;-87
2021/10/04 06:28:05;;;;;;;0.10;0.10;;;;;;;13.77;61.53;98693.84;114339;1216;137338;-86
2021/10/04 06:31:15;;;;;;;0.20;0.20;;;;;;;13.84;61.38;98696.41;114352;1216;137392;-87
2021/10/04 06:34:40;;;;;;;0.10;0.10;;;;;;;13.97;61.01;98700.77;114302;1216;137347;-87
2021/10/04 06:38:06;;;;;;;0.10;0.10;;;;;;;14.11;60.67;98705.02;114354;1216;137344;-87
2021/10/04 06:41:31;;;;;;;0.10;0.10;;;;;;;14.23;60.30;98708.86;114267;1209;137459;-87
2021/10/04 06:44:21;;;;;;;0.10;0.10;;;;;;;14.34;59.61;98711.55;114385;1216;22513;-87
2021/10/04 06:46:46;;;;;;;0.10;0.10;;;;;;;14.43;59.72;98710.81;114194;1215;137208;-85
2021/10/04 06:49:12;;;;;;;0.20;0.20;;;;;;;14.50;59.24;98713.52;114168;1216;137416;-86
2021/10/04 06:52:10;;;;;;;0.10;0.10;;;;;;;14.57;59.14;98715.38;114182;1217;137393;-87
2021/10/04 06:54:56;;;;;;;0.10;0.10;;;;;;;14.67;58.87;98719.78;114231;1217;137455;-86
2021/10/04 06:57:43;;;;;;;0.20;0.20;;;;;;;14.78;58.68;98721.97;114260;1212;137552;-88
2021/10/04 07:00:42;;;;;;;0.20;0.20;;;;;;;14.88;58.27;98722.67;114269;1217;137437;-86
2021/10/04 07:03:27;;;;;;;0.20;0.20;;;;;;;14.98;57.76;98725.54;114287;1217;137342;-85
2021/10/04 07:06:10;;;;;;;0.10;0.10;;;;;;;15.07;57.45;98724.55;114236;1211;137487;-87
2021/10/04 07:08:55;;;;;;;0.20;0.20;;;;;;;15.16;56.98;98727.00;114239;1210;137539;-87
2021/10/04 07:11:38;;;;;;;0.20;0.20;;;;;;;15.28;56.76;98730.98;114344;1212;22589;-86
2021/10/04 07:14:05;;;;;;;0.20;0.20;;;;;;;15.38;56.57;98734.21;114300;1217;24698;-86
2021/10/04 07:16:53;;;;;;;0.10;0.10;;;;;;;15.47;56.15;98730.77;114275;1217;137176;-87
2021/10/04 07:20:01;;;;;;;0.20;0.20;;;;;;;15.58;56.08;98732.45;114293;1217;137413;-88
2021/10/04 07:22:47;;;;;;;0.20;0.20;;;;;;;15.69;56.23;98736.95;114213;1213;137363;-86
2021/10/04 07:26:01;;;;;;;0.20;0.20;;;;;;;15.83;56.29;98740.89;114184;1217;137371;-87
2021/10/04 13:44:24;;;;;;;0.70;0.70;;;;;;;33.88;23.61;98562.48;115489;1208;136291;-83
2021/10/04 14:31:59;;;;;;;1.00;1.00;;;;;;;38.33;18.05;98545.09;115471;1206;137565;-84
2021/10/04 15:01:13;;;;;;;1.10;1.10;;;;;;;40.97;15.16;98551.59;115526;1217;137670;-84
2021/10/04 15:17:07;;;;;;;1.30;1.30;;;;;;;42.48;14.03;98543.61;115526;1205;137624;-84
2021/10/04 15:33:27;;;;;;;1.30;1.30;;;;;;;42.31;14.10;98553.13;114667;1205;22330;-84
2021/10/04 15:36:53;;;;;;;1.20;1.20;;;;;;;41.70;14.66;98549.83;115494;1217;137622;-84
2021/10/04 15:43:46;;;;;;;1.20;1.20;;;;;;;40.83;15.52;98546.64;115513;1216;137559;-84
2021/10/04 15:47:12;;;;;;;1.20;1.20;;;;;;;40.34;15.73;98545.85;115532;1217;137845;-85
2021/10/04 19:31:46;;;;;;;0.20;0.20;;;;;;;20.13;50.21;98644.34;114502;1206;137572;-86
2021/10/04 19:34:12;;;;;;;0.20;0.20;;;;;;;20.10;50.42;98643.50;115349;1219;137522;-85
2021/10/04 19:36:37;;;;;;;0.30;0.30;;;;;;;20.08;50.36;98643.08;115315;1219;137403;-83
2021/10/04 19:39:03;;;;;;;0.20;0.20;;;;;;;20.06;50.42;98644.77;115349;1220;137672;-83
2021/10/04 19:41:30;;;;;;;0.10;0.10;;;;;;;20.05;50.48;98642.58;115383;1219;22365;-83
2021/10/04 19:43:55;;;;;;;0.30;0.30;;;;;;;20.04;50.66;98640.75;115377;1220;137194;-84
2021/10/04 19:46:21;;;;;;;0.30;0.30;;;;;;;20.04;50.70;98643.56;115339;1219;137484;-86
2021/10/04 19:48:46;;;;;;;0.20;0.20;;;;;;;20.02;50.96;98643.53;115338;1216;137801;-85
2021/10/04 19:51:12;;;;;;;0.20;0.20;;;;;;;20.01;50.53;98642.66;115371;1216;137635;-86
2021/10/04 19:53:42;;;;;;;0.20;0.20;;;;;;;20.01;50.31;98639.61;115334;1214;137683;-86
2021/10/04 19:56:14;;;;;;;0.20;0.20;;;;;;;20.01;50.62;98640.31;115483;1219;23199;-86
2021/10/04 19:58:49;;;;;;;0.20;0.20;;;;;;;19.99;51.10;98642.15;115412;1219;137100;-84
2021/10/04 20:01:20;;;;;;;0.20;0.20;;;;;;;19.97;50.72;98644.47;115375;1219;138466;-86
2021/10/04 20:03:46;;;;;;;0.20;0.20;;;;;;;19.97;50.35;98646.02;115326;1219;137547;-86
2021/10/04 20:06:12;;;;;;;0.40;0.40;;;;;;;19.97;50.45;98647.42;115300;1219;137676;-86
2021/10/04 20:08:38;;;;;;;0.30;0.30;;;;;;;19.96;50.40;98652.88;115291;1216;138536;-85
2021/10/04 20:11:03;;;;;;;0.20;0.20;;;;;;;19.96;50.03;98647.88;115449;1216;23027;-83
2021/10/04 20:13:29;;;;;;;0.20;0.20;;;;;;;19.97;50.19;98648.84;115376;1216;137174;-81
2021/10/04 20:15:55;;;;;;;0.30;0.30;;;;;;;19.96;50.96;98646.17;115380;1216;137450;-81
2021/10/04 20:18:21;;;;;;;0.20;0.20;;;;;;;19.93;51.41;98646.27;115355;1216;137681;-81
2021/10/04 20:20:46;;;;;;;0.10;0.10;;;;;;;19.90;51.62;98645.98;115336;1216;137584;-81
2021/10/04 20:23:56;;;;;;;0.20;0.20;;;;;;;19.86;51.56;98643.19;115532;1218;22153;-87
2021/10/04 20:27:04;;;;;;;0.20;0.20;;;;;;;19.80;51.88;98637.45;115503;1218;136955;-87
2021/10/04 20:30:01;;;;;;;0.20;0.20;;;;;;;19.72;52.09;98643.33;115492;1218;137808;-87
2021/10/04 20:33:08;;;;;;;0.20;0.20;;;;;;;19.66;51.74;98648.31;115463;1218;137992;-87
2021/10/04 20:36:13;;;;;;;0.20;0.20;;;;;;;19.62;51.91;98643.83;115384;1219;137324;-86
2021/10/04 20:39:40;;;;;;;0.20;0.20;;;;;;;19.55;52.10;98644.86;115478;1218;137541;-87
2021/10/04 20:43:06;;;;;;;0.20;0.20;;;;;;;19.51;51.75;98650.41;115524;1218;137581;-88
2021/10/04 20:46:32;;;;;;;0.10;0.10;;;;;;;19.49;51.46;98651.39;115535;1218;137614;-88
2021/10/04 20:49:58;;;;;;;0.10;0.10;;;;;;;19.46;51.42;98649.08;115521;1217;137729;-88
2021/10/04 20:53:24;;;;;;;0.20;0.20;;;;;;;19.44;51.70;98650.19;115534;1218;136279;-87
2021/10/04 20:56:49;;;;;;;0.30;0.30;;;;;;;19.38;52.14;98642.98;115530;1218;137268;-87
2021/10/04 21:00:15;;;;;;;0.20;0.20;;;;;;;19.34;51.56;98645.55;115514;1218;137264;-87
2021/10/04 21:03:42;;;;;;;0.20;0.20;;;;;;;19.31;51.07;98641.60;115568;1218;137761;-88
2021/10/04 21:07:09;;;;;;;0.20;0.20;;;;;;;19.33;51.09;98645.47;115476;1218;137432;-86
2021/10/04 21:10:30;;;;;;;0.10;0.10;;;;;;;19.33;51.07;98646.63;115508;1218;137450;-87
2021/10/04 21:13:17;;;;;;;0.20;0.20;;;;;;;19.33;50.60;98646.17;115522;1218;136319;-87
2021/10/04 21:16:05;;;;;;;0.20;0.20;;;;;;;19.33;50.93;98643.29;115413;1218;136298;-86
2021/10/04 21:18:52;;;;;;;0.20;0.20;;;;;;;19.33;51.22;98642.90;115358;1218;137582;-87
2021/10/04 21:21:17;;;;;;;0.20;0.20;;;;;;;19.31;51.88;98642.16;115376;1216;137685;-86
2021/10/04 21:24:02;;;;;;;0.20;0.20;;;;;;;19.28;52.17;98640.06;115416;1216;137611;-86
2021/10/04 21:26:35;;;;;;;0.10;0.10;;;;;;;19.22;52.30;98634.48;115591;1216;22309;-87
2021/10/04 21:29:01;;;;;;;0.20;0.20;;;;;;;19.17;52.25;98637.97;115614;1217;22294;-86
2021/10/04 21:31:34;;;;;;;0.30;0.30;;;;;;;19.10;52.27;98633.63;115408;1218;137319;-87
2021/10/04 21:34:08;;;;;;;0.20;0.20;;;;;;;19.04;52.62;98636.80;115386;1216;137521;-86
2021/10/04 21:36:34;;;;;;;0.20;0.20;;;;;;;18.99;52.60;98641.13;115356;1212;137853;-87
2021/10/04 21:39:00;;;;;;;0.20;0.20;;;;;;;18.93;52.64;98639.12;115371;1217;138520;-86
2021/10/04 21:41:26;;;;;;;0.20;0.20;;;;;;;18.87;52.53;98637.05;115540;1216;22323;-86
2021/10/04 21:43:52;;;;;;;0.30;0.30;;;;;;;18.82;52.72;98635.05;115350;1217;137182;-86
2021/10/04 21:46:18;;;;;;;0.20;0.20;;;;;;;18.76;52.87;98632.28;115440;1216;137267;-86
2021/10/04 21:48:44;;;;;;;0.10;0.10;;;;;;;18.70;53.15;98635.70;115394;1212;137578;-86
2021/10/04 21:51:10;;;;;;;0.30;0.30;;;;;;;18.63;53.24;98632.67;115387;1218;137563;-85
2021/10/04 21:53:35;;;;;;;0.20;0.20;;;;;;;18.56;53.19;98633.70;115349;1218;137482;-86
2021/10/04 21:56:02;;;;;;;0.10;0.10;;;;;;;18.51;53.01;98630.39;115525;1217;22177;-86
2021/10/04 21:58:29;;;;;;;0.30;0.30;;;;;;;18.45;53.20;98626.58;115415;1218;137326;-86
2021/10/04 22:03:39;;;;;;;0.20;0.20;;;;;;;18.34;53.25;98627.36;115429;1217;136428;-86
2021/10/04 22:11:55;;;;;;;0.20;0.20;;;;;;;18.17;53.37;98628.12;115383;1219;138239;-86
2021/10/04 22:14:23;;;;;;;0.30;0.30;;;;;;;18.12;53.29;98631.89;115482;1218;22241;-86
2021/10/04 22:16:49;;;;;;;0.20;0.20;;;;;;;18.07;53.47;98630.23;115347;1218;137339;-86
2021/10/04 22:19:14;;;;;;;0.20;0.20;;;;;;;18.03;53.45;98633.94;115336;1219;137447;-86
2021/10/04 22:21:40;;;;;;;0.20;0.20;;;;;;;18.00;53.52;98633.15;115437;1213;137640;-85
2021/10/04 22:24:07;;;;;;;0.10;0.10;;;;;;;17.96;53.31;98633.39;115329;1219;137643;-86
2021/10/04 22:26:34;;;;;;;0.20;0.20;;;;;;;17.95;52.89;98622.98;115448;1216;137750;-85
2021/10/04 22:28:59;;;;;;;0.30;0.30;;;;;;;17.96;52.27;98624.66;115446;1219;22312;-85
2021/10/04 22:31:25;;;;;;;0.10;0.10;;;;;;;18.00;52.10;98629.05;115341;1211;137381;-85
2021/10/04 22:33:52;;;;;;;0.10;0.10;;;;;;;18.02;52.22;98629.54;115382;1216;137545;-85
2021/10/04 22:36:18;;;;;;;0.20;0.20;;;;;;;18.06;51.72;98626.77;115381;1204;137657;-85
2021/10/04 22:38:43;;;;;;;0.10;0.10;;;;;;;18.09;51.92;98627.24;115335;1216;137753;-85
2021/10/04 22:41:09;;;;;;;0.10;0.10;;;;;;;18.11;51.46;98630.95;115446;1216;22275;-85
2021/10/04 22:43:35;;;;;;;0.20;0.20;;;;;;;18.16;51.14;98633.55;115359;1219;137467;-85
2021/10/04 22:46:00;;;;;;;0.20;0.20;;;;;;;18.21;51.01;98626.42;115342;1219;137322;-85
2021/10/04 22:48:26;;;;;;;0.10;0.10;;;;;;;18.25;50.95;98631.17;115326;1216;137654;-85
2021/10/04 22:50:51;;;;;;;0.20;0.20;;;;;;;18.28;50.75;98632.05;115442;1214;137452;-85
2021/10/04 22:53:17;;;;;;;0.20;0.20;;;;;;;18.31;50.81;98631.20;115544;1212;22275;-85
2021/10/04 22:55:42;;;;;;;0.10;0.10;;;;;;;18.34;50.44;98633.28;115456;1217;137206;-85
2021/10/04 22:58:08;;;;;;;0.20;0.20;;;;;;;18.36;50.45;98629.98;115432;1214;137517;-85
2021/10/04 23:00:35;;;;;;;0.20;0.20;;;;;;;18.38;50.60;98630.66;115458;1207;137535;-85
2021/10/04 23:03:00;;;;;;;0.20;0.20;;;;;;;18.39;50.78;98628.81;115406;1216;138062;-85
2021/10/04 23:05:26;;;;;;;0.20;0.20;;;;;;;18.40;51.24;98627.80;115547;1217;22394;-85
2021/10/04 23:07:52;;;;;;;0.20;0.20;;;;;;;18.38;51.63;98626.27;115393;1217;136908;-85
2021/10/04 23:10:18;;;;;;;0.30;0.30;;;;;;;18.33;51.92;98627.88;115486;1217;137328;-85
2021/10/04 23:12:44;;;;;;;0.20;0.20;;;;;;;18.29;51.83;98627.15;115416;1213;137564;-86
2021/10/04 23:15:09;;;;;;;0.20;0.20;;;;;;;18.26;51.22;98628.41;115422;1218;138104;-85
2021/10/04 23:17:37;;;;;;;0.30;0.30;;;;;;;18.25;50.93;98625.05;115382;1217;137600;-85
2021/10/04 23:20:04;;;;;;;0.20;0.20;;;;;;;18.28;50.70;98628.93;115456;1218;22272;-85
2021/10/04 23:22:30;;;;;;;0.20;0.20;;;;;;;18.30;50.40;98628.27;115407;1217;137244;-85
2021/10/04 23:24:56;;;;;;;0.20;0.20;;;;;;;18.33;50.38;98623.29;115408;1212;138308;-86
2021/10/04 23:27:22;;;;;;;0.20;0.20;;;;;;;18.37;50.17;98617.84;115410;1212;137399;-85
2021/10/04 23:29:47;;;;;;;0.20;0.20;;;;;;;18.41;49.93;98619.50;115470;1217;137542;-85
2021/10/04 23:32:13;;;;;;;0.20;0.20;;;;;;;18.45;49.84;98624.08;115466;1218;22353;-84
2021/10/04 23:34:38;;;;;;;0.40;0.40;;;;;;;18.48;49.81;98617.38;115401;1216;137203;-85
2021/10/04 23:37:04;;;;;;;0.30;0.30;;;;;;;18.49;49.82;98616.55;115403;1214;137416;-85
2021/10/04 23:39:30;;;;;;;0.30;0.30;;;;;;;18.51;49.50;98618.09;115367;1214;137353;-86
2021/10/04 23:41:55;;;;;;;0.30;0.30;;;;;;;18.53;49.42;98616.41;115376;1218;137701;-86
2021/10/04 23:44:21;;;;;;;0.20;0.20;;;;;;;18.54;49.45;98616.50;115464;1218;22256;-86
2021/10/04 23:46:46;;;;;;;0.20;0.20;;;;;;;18.54;49.69;98612.69;115396;1218;137251;-86
2021/10/04 23:49:12;;;;;;;0.20;0.20;;;;;;;18.54;49.37;98615.48;115467;1218;137353;-86
2021/10/04 23:51:38;;;;;;;0.10;0.10;;;;;;;18.53;49.15;98616.02;115424;1212;137492;-86
2021/10/04 23:54:03;;;;;;;0.30;0.30;;;;;;;18.53;49.15;98616.73;115343;1218;137868;-86
2021/10/04 23:56:33;;;;;;;0.30;0.30;;;;;;;18.53;48.94;98613.91;115587;1218;22160;-86
2021/10/04 23:58:59;;;;;;;0.20;0.20;;;;;;;18.54;48.94;98610.73;115486;1212;22327;-84
